< < Back
Terminal Aerodrome Forecast


Current Version              Previous Versions:   1  2  3  4  5  6  7  8  9  

Terminal Aerodrome Forecast

577
FTUS42 KFFC 030335 AAA
TAFPDK
TAF AMD
KPDK 030335Z 0304/0324 00000KT P6SM FEW100 SCT200
     FM031500 35003KT P6SM SCT045 BKN200
     FM031800 33004KT P6SM BKN050 PROB30 0319/0323 -SHRA=

Latest METAR

803
SAUS70 KWBC 030400 RRL
MTRPDK
METAR KPDK 030353Z 00000KT 10SM CLR 24/22 A3003 RMK AO2 SLP149
T02390217


USA.gov is the U.S. government's official web portal to all federal, state and local government web resources and services.